Impacts TAF Board INFO
FOR SITUATIONAL AWARENESS. NOT TO BE USED FOR FLIGHT PLANNING PURPOSES.
IDs:

KLAX - Los Angeles Intl, CA, US

Issued at 1743 UTC 23 Jul 2017
Updated at 1921 UTC 23 Jul 2017
Potential Impact None Slight Moderate High
Time1853Z 23/20Z 23/21Z 23/22Z 23/23Z 24/00Z 24/01Z 24/02Z 24/03Z 24/04Z 24/05Z 24/06Z 24/07Z 24/08Z>>
Type OBS PRVL PRVL PRVL PRVL PRVL PRVL PRVL PRVL PRVL PRVL PRVL PRVL PRVL
VIS 9 >6 >6 >6 >6 >6 >6 >6 >6 >6 >6 >6 >6 >6
CIG -- -- -- -- -- -- -- -- -- -- -- -- -- 10
Cover SCT SCT SCT SCT SCT SCT SCT SCT SCT SCT SCT SKC SKC OVC
FltCat VFR VFR VFR VFR VFR VFR VFR VFR VFR VFR VFR VFR VFR MVFR
WX -- -- -- -- -- -- -- -- -- -- -- -- -- --
WDir 270 260 260 260 260 260 260 260 260 260 260 260 260 VRB
WSpd 10 12 12 12 12 12 12 12 12 12 12 6 6 3
WGst -- -- -- -- -- -- -- -- -- -- -- -- -- --

Raw TAF
KLAX 231743Z 2318/2424 24006KT P6SM FEW011 SCT017
  FM232000 26012KT P6SM SCT015
  FM240600 26006KT P6SM SKC
  FM240800 VRB03KT P6SM OVC010
  FM241700 26006KT P6SM SCT012
  FM242000 26012KT P6SM SKC


Raw METAR
KLAX 231853Z 27010KT 9SM SCT011 24/19 A2990 RMK AO2 SLP123 T02390189
KLAX 231753Z 25009KT 220V280 7SM FEW011 SCT017 24/19 A2990 RMK AO2 SLP124 T02390189 10244 20200 51005
KLAX 231653Z 24006KT 7SM FEW011 SCT017 24/19 A2990 RMK AO2 SLP123 T02390189
KLAX 231634Z 23006KT 7SM FEW011 SCT016 23/19 A2990 RMK AO2 T02330189

METAR Board
Radar Display
Forecast Discussion

FOR SITUATIONAL AWARENESS. NOT TO BE USED FOR FLIGHT PLANNING PURPOSES.